Accueil
METAR-TAF:

METAR-TAF

Aéroports :

Faßberg, Allemagne

latitude: 52-55N, longitude: 010-11E, altitude: 75 m

Observation

Le bulletin a été fait il y a 34 minutes, à 14:20 UTC
Vent 4 kt de sud-ouest
Température 26°C
Humidité 26%
Pression 1015 hPa
Visibilité 10 km ou plus
Quelques nuages à une hauteur de 6000 ft
Nuages fragmentés à une hauteur de 23000 ft

METAR: ETHS 021420Z 22004KT 9999 FEW060 BKN230 26/05 Q1015 BLU+BLU+

Heure: 16:54 (14:54 UTC)

Prévision

Le bulletin a été fait il y a 1 heure et 27 minutes, à 13:27 UTC
Prévision valable du 02 à 14 UTC au 02 à 23 UTC
Vent 5 kt de sud-est
Visibilité 10 km ou plus
Nuages fragmentés à une hauteur de 26000 ft

TAF: ETHS 021327Z 0214/0223 14005KT 9999 NSW BKN260

Observations et prévisions météorologiques de plus de 4000 aéroports (messages METAR et TAF).

Les stations disponibles sont représentées par des disques jaunes et rouges sur la carte.

Passer la souris dessus pour voir le nom de la station.

Cliquer dessus pour voir les observations et prévisions météorologiques.

Pour changer de carte: cliquez sur les boutons verts avec une croix noire pour zoomer, sur le bouton vert avec un tiret pour effectuer un zoom arrière, ou sur les flèches vertes pour les cartes adjacentes.


METAR-TAF: